createdAt,value
2018-07-03T00:01:57.243Z,16.04
2018-07-03T00:04:41.719Z,15.97
2018-07-03T00:07:22.624Z,15.86
2018-07-03T00:10:00.344Z,15.85
2018-07-03T00:12:43.900Z,15.82
2018-07-03T00:15:23.987Z,15.77
2018-07-03T00:18:03.543Z,15.78
2018-07-03T00:20:44.519Z,15.76
2018-07-03T00:23:31.608Z,15.75
2018-07-03T00:26:19.483Z,15.71
2018-07-03T00:28:59.622Z,15.62
2018-07-03T00:31:40.297Z,15.56
2018-07-03T00:34:20.680Z,15.56
2018-07-03T00:37:01.874Z,15.53
2018-07-03T00:39:40.376Z,15.47
2018-07-03T00:42:20.535Z,15.43
2018-07-03T00:45:01.360Z,15.34
2018-07-03T00:47:45.962Z,15.29
2018-07-03T00:50:24.977Z,15.20
2018-07-03T00:53:03.881Z,15.13
2018-07-03T00:55:43.459Z,15.07
2018-07-03T00:58:22.940Z,15.04
2018-07-03T01:01:31.485Z,15.02
2018-07-03T01:04:15.343Z,15.00
2018-07-03T01:06:54.458Z,15.00
2018-07-03T01:09:33.863Z,14.95
2018-07-03T01:12:16.781Z,14.87
2018-07-03T01:15:04.179Z,14.82
2018-07-03T01:17:42.098Z,14.78
2018-07-03T01:20:23.118Z,14.76
2018-07-03T01:23:02.717Z,14.72
2018-07-03T01:25:42.717Z,14.72
2018-07-03T01:28:23.480Z,14.68
2018-07-03T01:31:09.257Z,14.69
2018-07-03T01:33:49.544Z,14.66
2018-07-03T01:36:29.563Z,14.60
2018-07-03T01:39:12.999Z,14.55
2018-07-03T01:41:55.581Z,14.49
2018-07-03T01:44:37.724Z,14.44
2018-07-03T01:47:28.042Z,14.37
2018-07-03T01:50:06.658Z,14.34
2018-07-03T01:52:47.584Z,14.32
2018-07-03T01:55:26.559Z,14.31
2018-07-03T01:58:07.620Z,14.30
2018-07-03T02:00:47.837Z,14.27
2018-07-03T02:03:39.476Z,14.25
2018-07-03T02:06:18.365Z,14.16
2018-07-03T02:08:57.795Z,14.08
2018-07-03T02:11:39.540Z,14.00
2018-07-03T02:14:21.199Z,13.97
2018-07-03T02:17:00.537Z,13.97
2018-07-03T02:19:51.124Z,14.00
2018-07-03T02:22:29.458Z,14.04
2018-07-03T02:25:10.166Z,14.04
2018-07-03T02:27:49.375Z,13.97
2018-07-03T02:30:29.838Z,13.96
2018-07-03T02:33:18.556Z,13.96
2018-07-03T02:35:56.439Z,13.88
2018-07-03T02:38:35.623Z,13.80
2018-07-03T02:41:14.386Z,13.71
2018-07-03T02:43:53.380Z,13.66
2018-07-03T02:46:34.220Z,13.63
2018-07-03T02:49:15.343Z,13.65
2018-07-03T02:51:53.723Z,13.60
2018-07-03T02:54:33.377Z,13.52
2018-07-03T02:57:12.737Z,13.47
2018-07-03T02:59:51.965Z,13.50
2018-07-03T03:02:32.116Z,13.46
2018-07-03T03:05:13.122Z,13.45
2018-07-03T03:08:05.210Z,13.44
2018-07-03T03:10:46.941Z,13.46
2018-07-03T03:13:29.542Z,13.44
2018-07-03T03:16:09.081Z,13.46
2018-07-03T03:18:50.598Z,13.40
2018-07-03T03:21:32.618Z,13.38
2018-07-03T03:24:18.558Z,13.43
2018-07-03T03:26:58.181Z,13.43
2018-07-03T03:29:38.459Z,13.39
2018-07-03T03:32:19.000Z,13.34
2018-07-03T03:34:58.041Z,13.27
2018-07-03T03:37:42.962Z,13.18
2018-07-03T03:40:26.026Z,13.14
2018-07-03T03:43:14.695Z,13.12
2018-07-03T03:45:52.444Z,13.22
2018-07-03T03:48:40.323Z,13.24
2018-07-03T03:51:20.636Z,13.32
2018-07-03T03:54:01.983Z,13.25
2018-07-03T03:56:52.243Z,13.22
2018-07-03T03:59:30.959Z,13.26
2018-07-03T04:02:11.084Z,13.20
2018-07-03T04:04:51.441Z,13.10
2018-07-03T04:07:32.397Z,13.06
2018-07-03T04:10:20.262Z,13.05
2018-07-03T04:13:03.061Z,13.14
2018-07-03T04:15:44.619Z,13.18
2018-07-03T04:18:32.919Z,13.17
2018-07-03T04:21:14.700Z,13.15
2018-07-03T04:24:03.238Z,13.26
2018-07-03T04:26:41.836Z,13.28
2018-07-03T04:29:21.278Z,13.28
2018-07-03T04:32:00.188Z,13.29
2018-07-03T04:34:44.506Z,13.36
2018-07-03T04:37:28.978Z,13.45
2018-07-03T04:40:20.956Z,13.48
2018-07-03T04:43:00.518Z,13.55
2018-07-03T04:45:38.885Z,13.60
2018-07-03T04:48:21.038Z,13.64
2018-07-03T04:51:03.762Z,13.67
2018-07-03T04:53:48.605Z,13.69
2018-07-03T04:56:34.215Z,13.73
2018-07-03T04:59:14.202Z,13.78
2018-07-03T05:01:52.464Z,13.86
2018-07-03T05:04:35.474Z,13.89
2018-07-03T05:07:21.605Z,13.93
2018-07-03T05:10:00.885Z,14.02
2018-07-03T05:12:49.917Z,14.05
2018-07-03T05:15:32.927Z,14.14
2018-07-03T05:18:13.162Z,14.21
2018-07-03T05:21:02.998Z,14.30
2018-07-03T05:23:43.561Z,14.39
2018-07-03T05:26:27.796Z,14.47
2018-07-03T05:29:10.018Z,14.53
2018-07-03T05:31:49.341Z,14.61
2018-07-03T05:34:33.135Z,14.75
2018-07-03T05:37:13.096Z,14.87
2018-07-03T05:39:57.320Z,14.97
2018-07-03T05:42:45.067Z,15.08
2018-07-03T05:45:23.099Z,15.20
2018-07-03T05:48:05.136Z,15.31
2018-07-03T05:50:43.041Z,15.44
2018-07-03T05:53:25.761Z,15.57
2018-07-03T05:56:11.853Z,15.70
2018-07-03T05:59:01.815Z,15.80
2018-07-03T06:01:42.182Z,15.92
2018-07-03T06:04:27.119Z,16.00
2018-07-03T06:07:11.941Z,16.10
2018-07-03T06:09:50.942Z,16.20
2018-07-03T06:12:39.743Z,16.33
2018-07-03T06:15:19.963Z,16.48
2018-07-03T06:17:57.284Z,16.66
2018-07-03T06:20:39.181Z,16.81
2018-07-03T06:23:24.125Z,16.99
2018-07-03T06:26:07.099Z,17.17
2018-07-03T06:28:48.155Z,17.36
2018-07-03T06:31:30.000Z,17.62
2018-07-03T06:34:17.682Z,17.94
2018-07-03T06:36:55.683Z,18.29
2018-07-03T06:39:39.822Z,18.62
2018-07-03T06:42:30.502Z,18.95
2018-07-03T06:45:08.623Z,19.29
2018-07-03T06:47:48.299Z,19.53
2018-07-03T06:50:28.964Z,19.82
2018-07-03T06:53:15.344Z,20.10
2018-07-03T06:56:03.840Z,20.45
2018-07-03T06:58:45.023Z,20.69
2018-07-03T07:01:22.840Z,20.88
2018-07-03T07:04:04.521Z,21.02
2018-07-03T07:06:43.481Z,21.23
2018-07-03T07:09:22.096Z,21.58
2018-07-03T07:12:06.523Z,22.25
2018-07-03T07:14:46.448Z,23.00
2018-07-03T07:17:26.465Z,23.77
2018-07-03T07:20:13.321Z,24.45
2018-07-03T07:22:51.541Z,24.95
2018-07-03T07:25:36.437Z,25.41
2018-07-03T07:28:17.347Z,26.10
2018-07-03T07:31:02.225Z,26.79
2018-07-03T07:33:44.698Z,27.49
2018-07-03T07:36:31.966Z,27.94
2018-07-03T07:39:20.058Z,28.55
2018-07-03T07:42:00.560Z,29.11
2018-07-03T07:44:44.625Z,29.53
2018-07-03T07:47:27.426Z,29.87
2018-07-03T07:50:10.425Z,30.13
2018-07-03T07:52:50.083Z,30.39
2018-07-03T07:55:42.297Z,30.56
2018-07-03T07:58:27.201Z,30.80
2018-07-03T08:01:12.758Z,30.95
2018-07-03T08:03:54.717Z,31.08
2018-07-03T08:06:39.805Z,31.22
2018-07-03T08:09:22.847Z,31.36
2018-07-03T08:12:05.923Z,31.51
2018-07-03T08:14:51.558Z,31.51
2018-07-03T08:17:41.299Z,31.57
2018-07-03T08:20:21.417Z,31.41
2018-07-03T08:23:00.363Z,31.31
2018-07-03T22:34:01.334Z,19.37
2018-07-03T22:36:33.065Z,19.33
2018-07-03T22:39:20.540Z,19.28
2018-07-03T22:42:07.722Z,19.26
2018-07-03T22:44:50.085Z,19.20
2018-07-03T22:47:33.500Z,19.15
2018-07-03T22:50:20.058Z,19.10
2018-07-03T22:52:58.982Z,19.02
2018-07-03T22:55:46.864Z,18.96
2018-07-03T22:58:28.130Z,18.90
2018-07-03T23:01:11.321Z,18.83
2018-07-03T23:03:52.875Z,18.78
2018-07-03T23:06:41.569Z,18.77
2018-07-03T23:09:35.863Z,18.74
2018-07-03T23:12:27.199Z,18.69
2018-07-03T23:15:06.598Z,18.69
2018-07-03T23:17:49.423Z,18.69
2018-07-03T23:20:31.514Z,18.65
2018-07-03T23:23:11.237Z,18.62
2018-07-03T23:25:52.559Z,18.60
2018-07-03T23:28:31.641Z,18.52
2018-07-03T23:31:14.362Z,18.47
2018-07-03T23:33:55.514Z,18.44
2018-07-03T23:36:36.615Z,18.44
2018-07-03T23:39:20.274Z,18.42
2018-07-03T23:42:06.058Z,18.43
2018-07-03T23:44:48.062Z,18.45
2018-07-03T23:47:41.384Z,18.43
2018-07-03T23:50:32.481Z,18.36
2018-07-03T23:53:24.459Z,18.35
2018-07-03T23:56:15.461Z,18.28
2018-07-03T23:59:09.723Z,18.21
